sensor_id;sensor_type;location;lat;lon;timestamp;P1;durP1;ratioP1;P2;durP2;ratioP2
51614;SDS011;37695;52.960;6.188;2024-02-14T00:00:05;4.63;;;2.15;;
51614;SDS011;37695;52.960;6.188;2024-02-14T00:02:35;5.55;;;2.00;;
51614;SDS011;37695;52.960;6.188;2024-02-14T00:05:02;4.50;;;2.38;;
51614;SDS011;37695;52.960;6.188;2024-02-14T00:07:28;4.65;;;2.47;;
51614;SDS011;37695;52.960;6.188;2024-02-14T00:09:54;5.47;;;2.70;;
51614;SDS011;37695;52.960;6.188;2024-02-14T00:12:19;4.82;;;2.70;;
51614;SDS011;37695;52.960;6.188;2024-02-14T00:14:45;4.25;;;2.13;;
51614;SDS011;37695;52.960;6.188;2024-02-14T00:17:11;4.28;;;2.42;;
51614;SDS011;37695;52.960;6.188;2024-02-14T00:19:37;4.30;;;2.40;;
51614;SDS011;37695;52.960;6.188;2024-02-14T00:22:03;5.38;;;2.22;;
51614;SDS011;37695;52.960;6.188;2024-02-14T00:24:29;5.65;;;2.38;;
51614;SDS011;37695;52.960;6.188;2024-02-14T00:26:57;3.88;;;2.28;;
51614;SDS011;37695;52.960;6.188;2024-02-14T00:29:23;4.90;;;2.53;;
51614;SDS011;37695;52.960;6.188;2024-02-14T00:31:49;4.60;;;2.50;;
51614;SDS011;37695;52.960;6.188;2024-02-14T00:34:15;5.15;;;2.08;;
51614;SDS011;37695;52.960;6.188;2024-02-14T00:36:41;5.10;;;2.35;;
51614;SDS011;37695;52.960;6.188;2024-02-14T00:39:07;3.78;;;2.15;;
51614;SDS011;37695;52.960;6.188;2024-02-14T00:41:34;3.83;;;2.20;;
51614;SDS011;37695;52.960;6.188;2024-02-14T00:44:01;4.65;;;2.22;;
51614;SDS011;37695;52.960;6.188;2024-02-14T00:46:28;4.90;;;2.67;;
51614;SDS011;37695;52.960;6.188;2024-02-14T00:48:54;5.68;;;2.50;;
51614;SDS011;37695;52.960;6.188;2024-02-14T00:51:21;3.60;;;2.28;;
51614;SDS011;37695;52.960;6.188;2024-02-14T00:53:47;3.50;;;2.00;;
51614;SDS011;37695;52.960;6.188;2024-02-14T00:56:13;3.70;;;2.05;;
51614;SDS011;37695;52.960;6.188;2024-02-14T00:58:39;4.07;;;2.17;;
51614;SDS011;37695;52.960;6.188;2024-02-14T01:01:05;3.20;;;1.80;;
51614;SDS011;37695;52.960;6.188;2024-02-14T01:03:31;6.13;;;2.03;;
51614;SDS011;37695;52.960;6.188;2024-02-14T01:05:57;3.55;;;1.73;;
51614;SDS011;37695;52.960;6.188;2024-02-14T01:08:23;3.55;;;1.92;;
51614;SDS011;37695;52.960;6.188;2024-02-14T01:10:49;5.10;;;2.30;;
51614;SDS011;37695;52.960;6.188;2024-02-14T01:13:17;3.63;;;2.00;;
51614;SDS011;37695;52.960;6.188;2024-02-14T01:15:43;4.22;;;1.92;;
51614;SDS011;37695;52.960;6.188;2024-02-14T01:18:09;2.78;;;1.50;;
51614;SDS011;37695;52.960;6.188;2024-02-14T01:20:35;4.78;;;2.10;;
51614;SDS011;37695;52.960;6.188;2024-02-14T01:23:02;3.83;;;1.80;;
51614;SDS011;37695;52.960;6.188;2024-02-14T01:25:28;3.08;;;1.77;;
51614;SDS011;37695;52.960;6.188;2024-02-14T01:27:54;4.28;;;2.05;;
51614;SDS011;37695;52.960;6.188;2024-02-14T01:30:21;2.90;;;1.60;;
51614;SDS011;37695;52.960;6.188;2024-02-14T01:32:47;3.13;;;1.77;;
51614;SDS011;37695;52.960;6.188;2024-02-14T01:35:13;2.85;;;1.75;;
51614;SDS011;37695;52.960;6.188;2024-02-14T01:37:39;3.70;;;2.00;;
51614;SDS011;37695;52.960;6.188;2024-02-14T01:40:05;2.55;;;1.67;;
51614;SDS011;37695;52.960;6.188;2024-02-14T01:42:32;3.47;;;1.95;;
51614;SDS011;37695;52.960;6.188;2024-02-14T01:44:58;3.80;;;1.83;;
51614;SDS011;37695;52.960;6.188;2024-02-14T01:47:25;3.00;;;1.70;;
51614;SDS011;37695;52.960;6.188;2024-02-14T01:49:51;3.15;;;1.63;;
51614;SDS011;37695;52.960;6.188;2024-02-14T01:52:17;3.10;;;1.65;;
51614;SDS011;37695;52.960;6.188;2024-02-14T01:54:43;3.72;;;1.85;;
51614;SDS011;37695;52.960;6.188;2024-02-14T01:57:09;3.00;;;1.13;;
51614;SDS011;37695;52.960;6.188;2024-02-14T01:59:36;2.65;;;1.50;;
51614;SDS011;37695;52.960;6.188;2024-02-14T02:02:02;4.00;;;1.70;;
51614;SDS011;37695;52.960;6.188;2024-02-14T02:04:32;2.63;;;1.40;;
51614;SDS011;37695;52.960;6.188;2024-02-14T02:06:58;2.92;;;1.77;;
51614;SDS011;37695;52.960;6.188;2024-02-14T02:09:24;3.03;;;1.35;;
51614;SDS011;37695;52.960;6.188;2024-02-14T02:11:51;2.85;;;1.40;;
51614;SDS011;37695;52.960;6.188;2024-02-14T02:14:20;2.40;;;1.40;;
51614;SDS011;37695;52.960;6.188;2024-02-14T02:16:47;2.55;;;1.35;;
51614;SDS011;37695;52.960;6.188;2024-02-14T02:19:14;2.88;;;1.60;;
51614;SDS011;37695;52.960;6.188;2024-02-14T02:21:44;2.25;;;1.33;;
51614;SDS011;37695;52.960;6.188;2024-02-14T02:24:13;2.55;;;1.33;;
51614;SDS011;37695;52.960;6.188;2024-02-14T02:26:39;2.47;;;1.30;;
51614;SDS011;37695;52.960;6.188;2024-02-14T02:29:05;2.70;;;1.42;;
51614;SDS011;37695;52.960;6.188;2024-02-14T02:31:31;2.85;;;1.58;;
51614;SDS011;37695;52.960;6.188;2024-02-14T02:33:57;2.83;;;1.60;;
51614;SDS011;37695;52.960;6.188;2024-02-14T02:36:24;3.60;;;1.60;;
51614;SDS011;37695;52.960;6.188;2024-02-14T02:38:50;2.97;;;1.67;;
51614;SDS011;37695;52.960;6.188;2024-02-14T02:41:16;2.40;;;1.10;;
51614;SDS011;37695;52.960;6.188;2024-02-14T02:43:42;2.53;;;1.45;;
51614;SDS011;37695;52.960;6.188;2024-02-14T02:46:09;2.95;;;1.60;;
51614;SDS011;37695;52.960;6.188;2024-02-14T02:48:35;3.38;;;1.52;;
51614;SDS011;37695;52.960;6.188;2024-02-14T02:51:01;3.22;;;1.48;;
51614;SDS011;37695;52.960;6.188;2024-02-14T02:53:27;2.90;;;1.38;;
51614;SDS011;37695;52.960;6.188;2024-02-14T02:55:53;3.15;;;1.63;;
51614;SDS011;37695;52.960;6.188;2024-02-14T02:58:21;2.38;;;1.38;;
51614;SDS011;37695;52.960;6.188;2024-02-14T03:00:47;2.80;;;1.40;;
51614;SDS011;37695;52.960;6.188;2024-02-14T03:03:19;3.60;;;1.77;;
51614;SDS011;37695;52.960;6.188;2024-02-14T03:05:46;3.95;;;1.90;;
51614;SDS011;37695;52.960;6.188;2024-02-14T03:08:14;3.65;;;2.15;;
51614;SDS011;37695;52.960;6.188;2024-02-14T03:10:40;3.33;;;2.13;;
51614;SDS011;37695;52.960;6.188;2024-02-14T03:13:07;3.17;;;1.83;;
51614;SDS011;37695;52.960;6.188;2024-02-14T03:15:39;4.40;;;2.08;;
51614;SDS011;37695;52.960;6.188;2024-02-14T03:18:05;3.45;;;1.90;;
51614;SDS011;37695;52.960;6.188;2024-02-14T03:20:34;3.50;;;2.15;;
51614;SDS011;37695;52.960;6.188;2024-02-14T03:23:01;4.10;;;2.38;;
51614;SDS011;37695;52.960;6.188;2024-02-14T03:25:28;4.88;;;2.30;;
51614;SDS011;37695;52.960;6.188;2024-02-14T03:27:54;3.97;;;2.35;;
51614;SDS011;37695;52.960;6.188;2024-02-14T03:30:23;3.75;;;2.42;;
51614;SDS011;37695;52.960;6.188;2024-02-14T03:32:50;3.85;;;2.33;;
51614;SDS011;37695;52.960;6.188;2024-02-14T03:35:17;4.63;;;2.55;;
51614;SDS011;37695;52.960;6.188;2024-02-14T03:37:45;4.55;;;2.63;;
51614;SDS011;37695;52.960;6.188;2024-02-14T03:40:14;4.15;;;2.40;;
51614;SDS011;37695;52.960;6.188;2024-02-14T03:42:40;3.97;;;2.28;;
51614;SDS011;37695;52.960;6.188;2024-02-14T03:45:07;3.75;;;2.15;;
51614;SDS011;37695;52.960;6.188;2024-02-14T03:47:33;5.20;;;2.40;;
51614;SDS011;37695;52.960;6.188;2024-02-14T03:49:59;4.15;;;2.33;;
51614;SDS011;37695;52.960;6.188;2024-02-14T03:52:27;4.93;;;2.80;;
51614;SDS011;37695;52.960;6.188;2024-02-14T03:54:53;3.85;;;2.15;;
51614;SDS011;37695;52.960;6.188;2024-02-14T03:57:19;3.67;;;2.15;;
51614;SDS011;37695;52.960;6.188;2024-02-14T03:59:45;4.57;;;2.50;;
51614;SDS011;37695;52.960;6.188;2024-02-14T04:02:11;4.38;;;2.38;;
51614;SDS011;37695;52.960;6.188;2024-02-14T04:04:38;4.07;;;2.13;;
51614;SDS011;37695;52.960;6.188;2024-02-14T04:07:05;4.30;;;2.50;;
51614;SDS011;37695;52.960;6.188;2024-02-14T04:09:32;4.72;;;2.45;;
51614;SDS011;37695;52.960;6.188;2024-02-14T04:11:58;4.22;;;2.30;;
51614;SDS011;37695;52.960;6.188;2024-02-14T04:14:24;4.88;;;2.65;;
51614;SDS011;37695;52.960;6.188;2024-02-14T04:16:50;3.78;;;2.28;;
51614;SDS011;37695;52.960;6.188;2024-02-14T04:19:16;4.00;;;2.40;;
51614;SDS011;37695;52.960;6.188;2024-02-14T04:21:43;4.05;;;2.30;;
51614;SDS011;37695;52.960;6.188;2024-02-14T04:24:09;4.75;;;2.80;;
51614;SDS011;37695;52.960;6.188;2024-02-14T04:26:35;5.10;;;2.53;;
51614;SDS011;37695;52.960;6.188;2024-02-14T04:29:01;6.03;;;2.60;;
51614;SDS011;37695;52.960;6.188;2024-02-14T04:31:27;5.70;;;2.88;;
51614;SDS011;37695;52.960;6.188;2024-02-14T04:33:56;5.82;;;2.95;;
51614;SDS011;37695;52.960;6.188;2024-02-14T04:36:23;5.68;;;2.95;;
51614;SDS011;37695;52.960;6.188;2024-02-14T04:38:49;4.68;;;2.85;;
51614;SDS011;37695;52.960;6.188;2024-02-14T04:41:15;6.05;;;2.92;;
51614;SDS011;37695;52.960;6.188;2024-02-14T04:43:42;6.15;;;3.55;;
51614;SDS011;37695;52.960;6.188;2024-02-14T04:46:08;5.60;;;3.05;;
51614;SDS011;37695;52.960;6.188;2024-02-14T04:48:34;5.50;;;3.05;;
51614;SDS011;37695;52.960;6.188;2024-02-14T04:51:00;5.80;;;3.20;;
51614;SDS011;37695;52.960;6.188;2024-02-14T04:53:27;6.32;;;3.25;;
51614;SDS011;37695;52.960;6.188;2024-02-14T04:55:53;5.40;;;2.85;;
51614;SDS011;37695;52.960;6.188;2024-02-14T04:58:19;7.13;;;3.05;;
51614;SDS011;37695;52.960;6.188;2024-02-14T05:00:45;5.95;;;2.50;;
51614;SDS011;37695;52.960;6.188;2024-02-14T05:03:11;4.88;;;2.60;;
51614;SDS011;37695;52.960;6.188;2024-02-14T05:05:37;5.22;;;2.75;;
51614;SDS011;37695;52.960;6.188;2024-02-14T05:08:04;4.43;;;2.20;;
51614;SDS011;37695;52.960;6.188;2024-02-14T05:10:30;5.55;;;2.58;;
51614;SDS011;37695;52.960;6.188;2024-02-14T05:12:56;5.60;;;2.47;;
51614;SDS011;37695;52.960;6.188;2024-02-14T05:15:22;3.05;;;1.52;;
51614;SDS011;37695;52.960;6.188;2024-02-14T05:17:49;5.07;;;2.25;;
51614;SDS011;37695;52.960;6.188;2024-02-14T05:20:15;4.10;;;2.33;;
51614;SDS011;37695;52.960;6.188;2024-02-14T05:22:41;4.53;;;2.38;;
51614;SDS011;37695;52.960;6.188;2024-02-14T05:25:07;3.90;;;2.17;;
51614;SDS011;37695;52.960;6.188;2024-02-14T05:27:34;4.65;;;1.95;;
51614;SDS011;37695;52.960;6.188;2024-02-14T05:30:00;5.50;;;2.33;;
51614;SDS011;37695;52.960;6.188;2024-02-14T05:32:30;6.15;;;2.33;;
51614;SDS011;37695;52.960;6.188;2024-02-14T05:34:56;6.53;;;2.92;;
51614;SDS011;37695;52.960;6.188;2024-02-14T05:37:22;3.85;;;2.10;;
51614;SDS011;37695;52.960;6.188;2024-02-14T05:39:48;4.03;;;1.73;;
51614;SDS011;37695;52.960;6.188;2024-02-14T05:42:14;8.63;;;2.10;;
51614;SDS011;37695;52.960;6.188;2024-02-14T05:44:41;7.15;;;2.75;;
51614;SDS011;37695;52.960;6.188;2024-02-14T05:47:08;9.10;;;2.95;;
51614;SDS011;37695;52.960;6.188;2024-02-14T05:49:35;4.30;;;1.45;;
51614;SDS011;37695;52.960;6.188;2024-02-14T05:52:01;12.48;;;3.03;;
51614;SDS011;37695;52.960;6.188;2024-02-14T05:54:27;10.13;;;3.03;;
51614;SDS011;37695;52.960;6.188;2024-02-14T05:56:53;12.75;;;3.33;;
51614;SDS011;37695;52.960;6.188;2024-02-14T05:59:19;12.43;;;3.85;;
51614;SDS011;37695;52.960;6.188;2024-02-14T06:01:46;12.98;;;3.10;;
51614;SDS011;37695;52.960;6.188;2024-02-14T06:04:12;10.20;;;3.15;;
51614;SDS011;37695;52.960;6.188;2024-02-14T06:06:38;14.23;;;3.60;;
51614;SDS011;37695;52.960;6.188;2024-02-14T06:09:04;14.73;;;3.85;;
51614;SDS011;37695;52.960;6.188;2024-02-14T06:11:35;15.60;;;3.58;;
51614;SDS011;37695;52.960;6.188;2024-02-14T06:14:01;16.27;;;3.65;;
51614;SDS011;37695;52.960;6.188;2024-02-14T06:16:28;15.77;;;3.88;;
51614;SDS011;37695;52.960;6.188;2024-02-14T06:18:54;15.07;;;3.75;;
51614;SDS011;37695;52.960;6.188;2024-02-14T06:21:20;20.42;;;4.38;;
51614;SDS011;37695;52.960;6.188;2024-02-14T06:23:46;23.33;;;3.17;;
51614;SDS011;37695;52.960;6.188;2024-02-14T06:26:12;20.95;;;3.70;;
51614;SDS011;37695;52.960;6.188;2024-02-14T06:28:39;22.67;;;4.07;;
51614;SDS011;37695;52.960;6.188;2024-02-14T06:31:05;24.02;;;3.33;;
51614;SDS011;37695;52.960;6.188;2024-02-14T06:33:31;12.80;;;2.95;;
51614;SDS011;37695;52.960;6.188;2024-02-14T06:35:57;29.13;;;4.82;;
51614;SDS011;37695;52.960;6.188;2024-02-14T06:38:23;25.15;;;3.15;;
51614;SDS011;37695;52.960;6.188;2024-02-14T06:40:49;16.73;;;3.08;;
51614;SDS011;37695;52.960;6.188;2024-02-14T06:43:15;14.15;;;3.03;;
51614;SDS011;37695;52.960;6.188;2024-02-14T06:45:41;18.83;;;2.42;;
51614;SDS011;37695;52.960;6.188;2024-02-14T06:48:08;21.00;;;3.05;;
51614;SDS011;37695;52.960;6.188;2024-02-14T06:50:34;16.77;;;2.70;;
51614;SDS011;37695;52.960;6.188;2024-02-14T06:53:00;22.92;;;3.30;;
51614;SDS011;37695;52.960;6.188;2024-02-14T06:55:27;31.00;;;4.05;;
51614;SDS011;37695;52.960;6.188;2024-02-14T06:57:54;12.90;;;2.22;;
51614;SDS011;37695;52.960;6.188;2024-02-14T07:00:20;22.17;;;3.35;;
51614;SDS011;37695;52.960;6.188;2024-02-14T07:02:45;23.25;;;3.75;;
51614;SDS011;37695;52.960;6.188;2024-02-14T07:05:13;15.15;;;2.70;;
51614;SDS011;37695;52.960;6.188;2024-02-14T07:07:40;20.30;;;3.53;;
51614;SDS011;37695;52.960;6.188;2024-02-14T07:10:06;12.02;;;3.00;;
51614;SDS011;37695;52.960;6.188;2024-02-14T07:12:32;20.48;;;4.43;;
51614;SDS011;37695;52.960;6.188;2024-02-14T07:15:00;19.25;;;3.80;;
51614;SDS011;37695;52.960;6.188;2024-02-14T07:17:26;23.15;;;3.03;;
51614;SDS011;37695;52.960;6.188;2024-02-14T07:19:52;20.52;;;3.80;;
51614;SDS011;37695;52.960;6.188;2024-02-14T07:22:18;12.70;;;3.65;;
51614;SDS011;37695;52.960;6.188;2024-02-14T07:24:44;22.17;;;3.30;;
51614;SDS011;37695;52.960;6.188;2024-02-14T07:27:12;22.48;;;3.58;;
51614;SDS011;37695;52.960;6.188;2024-02-14T07:29:38;18.63;;;2.97;;
51614;SDS011;37695;52.960;6.188;2024-02-14T07:32:05;18.60;;;3.03;;
51614;SDS011;37695;52.960;6.188;2024-02-14T07:34:31;21.42;;;3.92;;
51614;SDS011;37695;52.960;6.188;2024-02-14T07:36:57;21.70;;;3.75;;
51614;SDS011;37695;52.960;6.188;2024-02-14T07:39:23;18.63;;;2.78;;
51614;SDS011;37695;52.960;6.188;2024-02-14T07:41:50;14.10;;;3.22;;
51614;SDS011;37695;52.960;6.188;2024-02-14T07:44:17;17.27;;;2.85;;
51614;SDS011;37695;52.960;6.188;2024-02-14T07:46:42;21.27;;;3.08;;
51614;SDS011;37695;52.960;6.188;2024-02-14T07:49:08;21.15;;;3.05;;
51614;SDS011;37695;52.960;6.188;2024-02-14T07:51:35;15.43;;;2.63;;
51614;SDS011;37695;52.960;6.188;2024-02-14T07:54:04;18.25;;;3.40;;
51614;SDS011;37695;52.960;6.188;2024-02-14T07:56:31;9.57;;;2.30;;
51614;SDS011;37695;52.960;6.188;2024-02-14T07:58:57;14.13;;;2.40;;
51614;SDS011;37695;52.960;6.188;2024-02-14T08:01:23;11.20;;;3.13;;
51614;SDS011;37695;52.960;6.188;2024-02-14T08:03:49;13.15;;;2.20;;
51614;SDS011;37695;52.960;6.188;2024-02-14T08:06:15;10.52;;;2.67;;
51614;SDS011;37695;52.960;6.188;2024-02-14T08:08:41;14.70;;;2.72;;
51614;SDS011;37695;52.960;6.188;2024-02-14T08:11:08;16.48;;;3.00;;
51614;SDS011;37695;52.960;6.188;2024-02-14T08:13:35;12.45;;;2.92;;
51614;SDS011;37695;52.960;6.188;2024-02-14T08:16:02;12.50;;;2.88;;
51614;SDS011;37695;52.960;6.188;2024-02-14T08:18:27;13.23;;;2.83;;
51614;SDS011;37695;52.960;6.188;2024-02-14T08:20:53;15.65;;;3.38;;
51614;SDS011;37695;52.960;6.188;2024-02-14T08:23:19;16.80;;;3.13;;
51614;SDS011;37695;52.960;6.188;2024-02-14T08:25:46;11.20;;;2.35;;
51614;SDS011;37695;52.960;6.188;2024-02-14T08:28:14;15.60;;;3.30;;
51614;SDS011;37695;52.960;6.188;2024-02-14T08:30:40;12.25;;;2.72;;
51614;SDS011;37695;52.960;6.188;2024-02-14T08:33:06;17.17;;;3.22;;
51614;SDS011;37695;52.960;6.188;2024-02-14T08:35:32;14.68;;;2.75;;
51614;SDS011;37695;52.960;6.188;2024-02-14T08:37:58;16.80;;;2.97;;
51614;SDS011;37695;52.960;6.188;2024-02-14T08:40:24;13.05;;;2.60;;
51614;SDS011;37695;52.960;6.188;2024-02-14T08:42:50;13.60;;;3.13;;
51614;SDS011;37695;52.960;6.188;2024-02-14T08:45:16;13.85;;;2.53;;
51614;SDS011;37695;52.960;6.188;2024-02-14T08:47:43;15.07;;;3.17;;
51614;SDS011;37695;52.960;6.188;2024-02-14T08:50:09;14.48;;;3.92;;
51614;SDS011;37695;52.960;6.188;2024-02-14T08:52:35;15.45;;;3.03;;
51614;SDS011;37695;52.960;6.188;2024-02-14T08:55:03;15.57;;;3.70;;
51614;SDS011;37695;52.960;6.188;2024-02-14T08:57:29;10.05;;;2.67;;
51614;SDS011;37695;52.960;6.188;2024-02-14T08:59:56;8.55;;;2.28;;
51614;SDS011;37695;52.960;6.188;2024-02-14T09:02:22;15.05;;;3.53;;
51614;SDS011;37695;52.960;6.188;2024-02-14T09:04:50;10.27;;;2.55;;
51614;SDS011;37695;52.960;6.188;2024-02-14T09:07:16;11.65;;;2.75;;
51614;SDS011;37695;52.960;6.188;2024-02-14T09:09:42;10.40;;;3.22;;
51614;SDS011;37695;52.960;6.188;2024-02-14T09:12:08;11.05;;;2.92;;
51614;SDS011;37695;52.960;6.188;2024-02-14T09:14:34;10.40;;;2.70;;
51614;SDS011;37695;52.960;6.188;2024-02-14T09:17:00;11.07;;;2.88;;
51614;SDS011;37695;52.960;6.188;2024-02-14T09:19:27;11.98;;;3.13;;
51614;SDS011;37695;52.960;6.188;2024-02-14T09:21:53;11.50;;;2.67;;
51614;SDS011;37695;52.960;6.188;2024-02-14T09:24:19;9.55;;;3.15;;
51614;SDS011;37695;52.960;6.188;2024-02-14T09:26:45;13.15;;;3.20;;
51614;SDS011;37695;52.960;6.188;2024-02-14T09:29:11;12.32;;;2.97;;
51614;SDS011;37695;52.960;6.188;2024-02-14T09:31:37;7.70;;;2.47;;
51614;SDS011;37695;52.960;6.188;2024-02-14T09:34:03;11.55;;;2.72;;
51614;SDS011;37695;52.960;6.188;2024-02-14T09:36:28;8.68;;;1.98;;
51614;SDS011;37695;52.960;6.188;2024-02-14T09:38:55;7.25;;;1.90;;
51614;SDS011;37695;52.960;6.188;2024-02-14T09:41:22;6.55;;;2.30;;
51614;SDS011;37695;52.960;6.188;2024-02-14T09:44:08;5.80;;;1.90;;
51614;SDS011;37695;52.960;6.188;2024-02-14T09:46:37;5.90;;;2.20;;
51614;SDS011;37695;52.960;6.188;2024-02-14T09:49:03;4.47;;;1.58;;
51614;SDS011;37695;52.960;6.188;2024-02-14T09:51:31;5.40;;;1.83;;
51614;SDS011;37695;52.960;6.188;2024-02-14T09:53:57;5.65;;;2.00;;
51614;SDS011;37695;52.960;6.188;2024-02-14T09:56:28;4.82;;;1.77;;
51614;SDS011;37695;52.960;6.188;2024-02-14T09:58:54;6.82;;;2.00;;
51614;SDS011;37695;52.960;6.188;2024-02-14T10:01:22;5.03;;;1.98;;
51614;SDS011;37695;52.960;6.188;2024-02-14T10:03:49;6.20;;;2.13;;
51614;SDS011;37695;52.960;6.188;2024-02-14T10:06:15;6.88;;;2.33;;
51614;SDS011;37695;52.960;6.188;2024-02-14T10:08:42;6.22;;;2.40;;
51614;SDS011;37695;52.960;6.188;2024-02-14T10:11:08;7.63;;;2.63;;
51614;SDS011;37695;52.960;6.188;2024-02-14T10:13:35;5.22;;;2.25;;
51614;SDS011;37695;52.960;6.188;2024-02-14T10:16:01;7.45;;;3.05;;
51614;SDS011;37695;52.960;6.188;2024-02-14T10:18:28;6.70;;;3.58;;
51614;SDS011;37695;52.960;6.188;2024-02-14T10:20:57;6.85;;;3.35;;
51614;SDS011;37695;52.960;6.188;2024-02-14T10:23:23;11.20;;;4.07;;
51614;SDS011;37695;52.960;6.188;2024-02-14T10:25:50;8.43;;;3.22;;
51614;SDS011;37695;52.960;6.188;2024-02-14T10:28:18;9.07;;;4.07;;
51614;SDS011;37695;52.960;6.188;2024-02-14T10:30:47;9.77;;;3.72;;
51614;SDS011;37695;52.960;6.188;2024-02-14T10:33:17;7.43;;;3.50;;
51614;SDS011;37695;52.960;6.188;2024-02-14T10:35:44;8.45;;;3.83;;
51614;SDS011;37695;52.960;6.188;2024-02-14T10:38:10;9.30;;;3.53;;
51614;SDS011;37695;52.960;6.188;2024-02-14T10:40:36;8.05;;;3.30;;
51614;SDS011;37695;52.960;6.188;2024-02-14T10:43:07;6.72;;;3.15;;
51614;SDS011;37695;52.960;6.188;2024-02-14T10:45:37;6.00;;;2.70;;
51614;SDS011;37695;52.960;6.188;2024-02-14T10:48:04;5.35;;;2.00;;
51614;SDS011;37695;52.960;6.188;2024-02-14T10:50:33;5.47;;;2.42;;
51614;SDS011;37695;52.960;6.188;2024-02-14T10:53:03;5.47;;;2.33;;
51614;SDS011;37695;52.960;6.188;2024-02-14T10:55:31;5.97;;;2.05;;
51614;SDS011;37695;52.960;6.188;2024-02-14T10:57:58;7.03;;;2.13;;
51614;SDS011;37695;52.960;6.188;2024-02-14T11:00:25;3.92;;;1.80;;
51614;SDS011;37695;52.960;6.188;2024-02-14T11:02:51;5.45;;;2.60;;
51614;SDS011;37695;52.960;6.188;2024-02-14T11:05:19;5.63;;;2.70;;
51614;SDS011;37695;52.960;6.188;2024-02-14T11:07:49;4.82;;;2.70;;
51614;SDS011;37695;52.960;6.188;2024-02-14T11:10:18;5.60;;;2.70;;
51614;SDS011;37695;52.960;6.188;2024-02-14T11:12:46;5.93;;;3.10;;
51614;SDS011;37695;52.960;6.188;2024-02-14T11:15:16;5.50;;;2.60;;
51614;SDS011;37695;52.960;6.188;2024-02-14T11:17:46;4.90;;;2.30;;
51614;SDS011;37695;52.960;6.188;2024-02-14T11:20:21;5.53;;;2.65;;
51614;SDS011;37695;52.960;6.188;2024-02-14T11:22:56;4.05;;;2.30;;
51614;SDS011;37695;52.960;6.188;2024-02-14T11:25:29;5.70;;;2.35;;
51614;SDS011;37695;52.960;6.188;2024-02-14T11:27:56;4.75;;;1.73;;
51614;SDS011;37695;52.960;6.188;2024-02-14T11:30:28;3.85;;;2.20;;
51614;SDS011;37695;52.960;6.188;2024-02-14T11:32:54;4.60;;;1.95;;
51614;SDS011;37695;52.960;6.188;2024-02-14T11:35:20;4.50;;;1.85;;
51614;SDS011;37695;52.960;6.188;2024-02-14T11:37:52;3.95;;;2.00;;
51614;SDS011;37695;52.960;6.188;2024-02-14T11:40:19;5.13;;;2.45;;
51614;SDS011;37695;52.960;6.188;2024-02-14T11:42:46;5.47;;;2.80;;
51614;SDS011;37695;52.960;6.188;2024-02-14T11:45:12;5.95;;;2.50;;
51614;SDS011;37695;52.960;6.188;2024-02-14T11:47:39;5.90;;;2.58;;
51614;SDS011;37695;52.960;6.188;2024-02-14T11:50:05;5.20;;;2.40;;
51614;SDS011;37695;52.960;6.188;2024-02-14T11:52:31;3.95;;;2.22;;
51614;SDS011;37695;52.960;6.188;2024-02-14T11:54:57;3.38;;;2.10;;
51614;SDS011;37695;52.960;6.188;2024-02-14T11:57:25;3.63;;;2.20;;
51614;SDS011;37695;52.960;6.188;2024-02-14T11:59:52;3.75;;;1.95;;
51614;SDS011;37695;52.960;6.188;2024-02-14T12:02:18;3.25;;;1.90;;
51614;SDS011;37695;52.960;6.188;2024-02-14T12:04:45;3.72;;;1.60;;
51614;SDS011;37695;52.960;6.188;2024-02-14T12:07:15;3.85;;;1.95;;
51614;SDS011;37695;52.960;6.188;2024-02-14T12:09:42;3.67;;;2.03;;
51614;SDS011;37695;52.960;6.188;2024-02-14T12:12:08;3.50;;;1.80;;
51614;SDS011;37695;52.960;6.188;2024-02-14T12:14:34;2.88;;;1.63;;
51614;SDS011;37695;52.960;6.188;2024-02-14T12:17:00;5.28;;;2.40;;
51614;SDS011;37695;52.960;6.188;2024-02-14T12:19:31;3.55;;;2.17;;
51614;SDS011;37695;52.960;6.188;2024-02-14T12:21:59;3.03;;;1.58;;
51614;SDS011;37695;52.960;6.188;2024-02-14T12:24:29;4.78;;;1.98;;
51614;SDS011;37695;52.960;6.188;2024-02-14T12:26:55;6.65;;;2.63;;
51614;SDS011;37695;52.960;6.188;2024-02-14T12:29:23;4.28;;;2.03;;
51614;SDS011;37695;52.960;6.188;2024-02-14T12:31:49;4.03;;;1.80;;
51614;SDS011;37695;52.960;6.188;2024-02-14T12:34:15;4.82;;;2.08;;
51614;SDS011;37695;52.960;6.188;2024-02-14T12:36:43;4.28;;;2.20;;
51614;SDS011;37695;52.960;6.188;2024-02-14T12:39:09;5.53;;;2.47;;
51614;SDS011;37695;52.960;6.188;2024-02-14T12:41:37;6.47;;;3.00;;
51614;SDS011;37695;52.960;6.188;2024-02-14T12:44:05;4.68;;;2.20;;
51614;SDS011;37695;52.960;6.188;2024-02-14T12:46:32;4.97;;;2.40;;
51614;SDS011;37695;52.960;6.188;2024-02-14T12:48:58;4.55;;;2.80;;
51614;SDS011;37695;52.960;6.188;2024-02-14T12:51:24;5.68;;;2.70;;
51614;SDS011;37695;52.960;6.188;2024-02-14T12:53:53;6.20;;;2.70;;
51614;SDS011;37695;52.960;6.188;2024-02-14T12:56:19;6.72;;;2.58;;
51614;SDS011;37695;52.960;6.188;2024-02-14T12:58:45;6.15;;;2.90;;
51614;SDS011;37695;52.960;6.188;2024-02-14T13:01:12;5.25;;;2.67;;
51614;SDS011;37695;52.960;6.188;2024-02-14T13:03:39;6.35;;;3.20;;
51614;SDS011;37695;52.960;6.188;2024-02-14T13:06:05;6.03;;;3.00;;
51614;SDS011;37695;52.960;6.188;2024-02-14T13:08:31;6.32;;;3.45;;
51614;SDS011;37695;52.960;6.188;2024-02-14T13:10:57;8.43;;;3.90;;
51614;SDS011;37695;52.960;6.188;2024-02-14T13:13:24;6.13;;;3.78;;
51614;SDS011;37695;52.960;6.188;2024-02-14T13:15:49;6.60;;;3.55;;
51614;SDS011;37695;52.960;6.188;2024-02-14T13:18:15;6.22;;;4.00;;
51614;SDS011;37695;52.960;6.188;2024-02-14T13:20:42;6.28;;;3.17;;
51614;SDS011;37695;52.960;6.188;2024-02-14T13:23:09;9.15;;;4.30;;
51614;SDS011;37695;52.960;6.188;2024-02-14T13:25:35;6.85;;;3.47;;
51614;SDS011;37695;52.960;6.188;2024-02-14T13:28:02;6.10;;;3.78;;
51614;SDS011;37695;52.960;6.188;2024-02-14T13:30:29;5.47;;;3.65;;
51614;SDS011;37695;52.960;6.188;2024-02-14T13:32:55;6.38;;;4.03;;
51614;SDS011;37695;52.960;6.188;2024-02-14T13:35:21;7.18;;;4.30;;
51614;SDS011;37695;52.960;6.188;2024-02-14T13:37:48;7.53;;;3.83;;
51614;SDS011;37695;52.960;6.188;2024-02-14T13:40:14;6.00;;;3.78;;
51614;SDS011;37695;52.960;6.188;2024-02-14T13:42:40;6.82;;;3.92;;
51614;SDS011;37695;52.960;6.188;2024-02-14T13:45:07;6.85;;;3.97;;
51614;SDS011;37695;52.960;6.188;2024-02-14T13:47:39;7.35;;;3.70;;
51614;SDS011;37695;52.960;6.188;2024-02-14T13:50:05;5.68;;;3.65;;
51614;SDS011;37695;52.960;6.188;2024-02-14T13:52:32;6.45;;;3.20;;
51614;SDS011;37695;52.960;6.188;2024-02-14T13:54:59;5.35;;;3.75;;
51614;SDS011;37695;52.960;6.188;2024-02-14T13:57:27;5.63;;;3.10;;
51614;SDS011;37695;52.960;6.188;2024-02-14T13:59:54;5.07;;;3.28;;
51614;SDS011;37695;52.960;6.188;2024-02-14T14:02:20;5.93;;;3.40;;
51614;SDS011;37695;52.960;6.188;2024-02-14T14:04:46;4.50;;;2.90;;
51614;SDS011;37695;52.960;6.188;2024-02-14T14:07:13;5.10;;;2.83;;
51614;SDS011;37695;52.960;6.188;2024-02-14T14:09:39;5.38;;;2.70;;
51614;SDS011;37695;52.960;6.188;2024-02-14T14:12:05;4.47;;;2.80;;
51614;SDS011;37695;52.960;6.188;2024-02-14T14:14:31;3.67;;;2.30;;
51614;SDS011;37695;52.960;6.188;2024-02-14T14:16:57;4.70;;;2.55;;
51614;SDS011;37695;52.960;6.188;2024-02-14T14:19:23;6.22;;;2.53;;
51614;SDS011;37695;52.960;6.188;2024-02-14T14:21:49;3.63;;;2.20;;
51614;SDS011;37695;52.960;6.188;2024-02-14T14:24:15;3.35;;;1.90;;
51614;SDS011;37695;52.960;6.188;2024-02-14T14:26:41;3.40;;;2.20;;
51614;SDS011;37695;52.960;6.188;2024-02-14T14:29:08;4.32;;;2.10;;
51614;SDS011;37695;52.960;6.188;2024-02-14T14:31:35;3.25;;;2.13;;
51614;SDS011;37695;52.960;6.188;2024-02-14T14:34:01;3.03;;;2.03;;
51614;SDS011;37695;52.960;6.188;2024-02-14T14:36:26;2.88;;;2.00;;
51614;SDS011;37695;52.960;6.188;2024-02-14T14:38:52;2.97;;;1.90;;
51614;SDS011;37695;52.960;6.188;2024-02-14T14:41:19;3.60;;;1.95;;